sensor_id;sensor_type;location;lat;lon;timestamp;P1;durP1;ratioP1;P2;durP2;ratioP2
76439;SDS011;65274;44.982;20.060;2023-11-19T00:58:26;33.08;;;15.13;;
76439;SDS011;65274;44.982;20.060;2023-11-19T02:11:15;30.02;;;18.52;;
76439;SDS011;65274;44.982;20.060;2023-11-19T02:13:42;30.45;;;16.08;;
76439;SDS011;65274;44.982;20.060;2023-11-19T02:16:10;29.80;;;16.92;;
76439;SDS011;65274;44.982;20.060;2023-11-19T02:18:36;37.05;;;18.17;;
76439;SDS011;65274;44.982;20.060;2023-11-19T03:01:10;36.53;;;20.00;;
76439;SDS011;65274;44.982;20.060;2023-11-19T06:32:29;43.55;;;22.88;;
76439;SDS011;65274;44.982;20.060;2023-11-19T07:44:52;20.25;;;9.90;;
76439;SDS011;65274;44.982;20.060;2023-11-19T07:50:10;30.25;;;16.63;;
76439;SDS011;65274;44.982;20.060;2023-11-19T08:00:29;19.92;;;12.38;;
76439;SDS011;65274;44.982;20.060;2023-11-19T08:03:00;23.92;;;14.93;;
76439;SDS011;65274;44.982;20.060;2023-11-19T08:11:13;16.25;;;10.60;;
76439;SDS011;65274;44.982;20.060;2023-11-19T08:37:20;23.58;;;11.57;;
76439;SDS011;65274;44.982;20.060;2023-11-19T08:48:00;21.30;;;12.35;;
76439;SDS011;65274;44.982;20.060;2023-11-19T08:50:47;16.17;;;9.07;;
76439;SDS011;65274;44.982;20.060;2023-11-19T08:53:27;13.95;;;9.13;;
76439;SDS011;65274;44.982;20.060;2023-11-19T08:59:02;15.13;;;8.48;;
76439;SDS011;65274;44.982;20.060;2023-11-19T10:26:30;6.57;;;6.05;;
76439;SDS011;65274;44.982;20.060;2023-11-19T10:28:56;12.27;;;8.13;;
76439;SDS011;65274;44.982;20.060;2023-11-19T11:37:17;6.72;;;5.53;;
76439;SDS011;65274;44.982;20.060;2023-11-19T11:39:49;7.82;;;5.88;;
76439;SDS011;65274;44.982;20.060;2023-11-19T11:45:01;8.48;;;6.40;;
76439;SDS011;65274;44.982;20.060;2023-11-19T11:50:12;9.93;;;5.80;;
76439;SDS011;65274;44.982;20.060;2023-11-19T11:55:26;7.57;;;5.15;;
76439;SDS011;65274;44.982;20.060;2023-11-19T11:57:53;10.73;;;8.30;;
76439;SDS011;65274;44.982;20.060;2023-11-19T12:00:22;8.23;;;5.45;;
76439;SDS011;65274;44.982;20.060;2023-11-19T12:02:56;8.82;;;5.70;;
76439;SDS011;65274;44.982;20.060;2023-11-19T12:05:22;8.18;;;6.22;;
76439;SDS011;65274;44.982;20.060;2023-11-19T12:07:55;9.32;;;5.45;;
76439;SDS011;65274;44.982;20.060;2023-11-19T12:10:24;5.72;;;5.13;;
76439;SDS011;65274;44.982;20.060;2023-11-19T12:12:53;11.70;;;5.95;;
76439;SDS011;65274;44.982;20.060;2023-11-19T12:15:19;7.15;;;5.80;;
76439;SDS011;65274;44.982;20.060;2023-11-19T12:17:50;8.25;;;6.07;;
76439;SDS011;65274;44.982;20.060;2023-11-19T12:20:23;9.43;;;6.40;;
76439;SDS011;65274;44.982;20.060;2023-11-19T12:22:49;9.52;;;6.30;;
76439;SDS011;65274;44.982;20.060;2023-11-19T12:25:16;8.93;;;6.50;;
76439;SDS011;65274;44.982;20.060;2023-11-19T12:27:50;11.63;;;7.35;;
76439;SDS011;65274;44.982;20.060;2023-11-19T12:30:25;8.13;;;5.53;;
76439;SDS011;65274;44.982;20.060;2023-11-19T12:32:52;6.03;;;5.03;;
76439;SDS011;65274;44.982;20.060;2023-11-19T12:35:21;8.68;;;5.40;;
76439;SDS011;65274;44.982;20.060;2023-11-19T12:37:49;10.13;;;6.45;;
76439;SDS011;65274;44.982;20.060;2023-11-19T12:40:19;7.65;;;5.65;;
76439;SDS011;65274;44.982;20.060;2023-11-19T12:42:46;9.07;;;5.97;;
76439;SDS011;65274;44.982;20.060;2023-11-19T12:45:12;7.28;;;5.95;;
76439;SDS011;65274;44.982;20.060;2023-11-19T12:47:39;9.25;;;7.13;;
76439;SDS011;65274;44.982;20.060;2023-11-19T12:50:07;8.77;;;7.00;;
76439;SDS011;65274;44.982;20.060;2023-11-19T12:52:37;12.38;;;6.88;;
76439;SDS011;65274;44.982;20.060;2023-11-19T12:55:25;10.82;;;7.75;;
76439;SDS011;65274;44.982;20.060;2023-11-19T12:57:51;14.95;;;9.90;;
76439;SDS011;65274;44.982;20.060;2023-11-19T13:00:21;8.60;;;6.95;;
76439;SDS011;65274;44.982;20.060;2023-11-19T13:02:48;11.02;;;6.70;;
76439;SDS011;65274;44.982;20.060;2023-11-19T13:05:32;12.65;;;7.22;;
76439;SDS011;65274;44.982;20.060;2023-11-19T13:08:04;8.38;;;5.55;;
76439;SDS011;65274;44.982;20.060;2023-11-19T13:10:31;8.93;;;6.13;;
76439;SDS011;65274;44.982;20.060;2023-11-19T13:13:02;8.90;;;5.40;;
76439;SDS011;65274;44.982;20.060;2023-11-19T13:15:28;8.10;;;6.53;;
76439;SDS011;65274;44.982;20.060;2023-11-19T13:17:55;12.95;;;7.22;;
76439;SDS011;65274;44.982;20.060;2023-11-19T13:20:21;8.25;;;5.32;;
76439;SDS011;65274;44.982;20.060;2023-11-19T13:22:54;10.63;;;6.65;;
76439;SDS011;65274;44.982;20.060;2023-11-19T13:25:20;10.80;;;6.40;;
76439;SDS011;65274;44.982;20.060;2023-11-19T13:27:47;9.73;;;6.82;;
76439;SDS011;65274;44.982;20.060;2023-11-19T13:30:13;13.15;;;7.55;;
76439;SDS011;65274;44.982;20.060;2023-11-19T13:32:39;10.63;;;7.20;;
76439;SDS011;65274;44.982;20.060;2023-11-19T13:35:05;11.65;;;7.50;;
76439;SDS011;65274;44.982;20.060;2023-11-19T13:37:34;11.30;;;7.35;;
76439;SDS011;65274;44.982;20.060;2023-11-19T13:40:00;11.70;;;7.22;;
76439;SDS011;65274;44.982;20.060;2023-11-19T13:42:26;12.77;;;8.45;;
76439;SDS011;65274;44.982;20.060;2023-11-19T13:44:52;11.52;;;8.15;;
76439;SDS011;65274;44.982;20.060;2023-11-19T13:47:20;8.50;;;6.15;;
76439;SDS011;65274;44.982;20.060;2023-11-19T13:49:46;10.68;;;6.38;;
76439;SDS011;65274;44.982;20.060;2023-11-19T13:52:12;8.32;;;6.50;;
76439;SDS011;65274;44.982;20.060;2023-11-19T13:54:38;13.07;;;7.40;;
76439;SDS011;65274;44.982;20.060;2023-11-19T13:57:04;10.30;;;6.80;;
76439;SDS011;65274;44.982;20.060;2023-11-19T13:59:33;11.98;;;6.82;;
76439;SDS011;65274;44.982;20.060;2023-11-19T14:01:59;7.93;;;5.97;;
76439;SDS011;65274;44.982;20.060;2023-11-19T14:04:25;10.35;;;7.45;;
76439;SDS011;65274;44.982;20.060;2023-11-19T14:06:51;10.32;;;7.15;;
76439;SDS011;65274;44.982;20.060;2023-11-19T14:09:20;20.13;;;9.55;;
76439;SDS011;65274;44.982;20.060;2023-11-19T14:11:46;15.82;;;8.07;;
76439;SDS011;65274;44.982;20.060;2023-11-19T14:14:22;11.38;;;8.20;;
76439;SDS011;65274;44.982;20.060;2023-11-19T14:16:48;13.52;;;8.38;;
76439;SDS011;65274;44.982;20.060;2023-11-19T14:21:50;13.27;;;9.18;;
76439;SDS011;65274;44.982;20.060;2023-11-19T14:24:16;14.95;;;8.80;;
76439;SDS011;65274;44.982;20.060;2023-11-19T14:26:45;41.10;;;22.13;;
76439;SDS011;65274;44.982;20.060;2023-11-19T14:29:12;79.22;;;49.15;;
76439;SDS011;65274;44.982;20.060;2023-11-19T14:31:38;40.92;;;29.55;;
76439;SDS011;65274;44.982;20.060;2023-11-19T14:34:05;21.75;;;15.10;;
76439;SDS011;65274;44.982;20.060;2023-11-19T14:36:43;12.73;;;8.65;;
76439;SDS011;65274;44.982;20.060;2023-11-19T14:39:44;17.13;;;9.75;;
76439;SDS011;65274;44.982;20.060;2023-11-19T14:42:49;14.82;;;9.80;;
76439;SDS011;65274;44.982;20.060;2023-11-19T14:47:58;17.08;;;12.35;;
76439;SDS011;65274;44.982;20.060;2023-11-19T14:50:24;19.23;;;13.18;;
76439;SDS011;65274;44.982;20.060;2023-11-19T14:52:50;38.63;;;23.75;;
76439;SDS011;65274;44.982;20.060;2023-11-19T14:55:16;43.03;;;25.70;;
76439;SDS011;65274;44.982;20.060;2023-11-19T14:57:42;37.30;;;20.25;;
76439;SDS011;65274;44.982;20.060;2023-11-19T15:00:09;31.45;;;19.52;;
76439;SDS011;65274;44.982;20.060;2023-11-19T15:02:41;35.83;;;18.08;;
76439;SDS011;65274;44.982;20.060;2023-11-19T15:05:08;35.13;;;21.73;;
76439;SDS011;65274;44.982;20.060;2023-11-19T15:07:38;84.93;;;34.25;;
76439;SDS011;65274;44.982;20.060;2023-11-19T15:10:07;38.67;;;20.33;;
76439;SDS011;65274;44.982;20.060;2023-11-19T15:12:37;29.90;;;16.48;;
76439;SDS011;65274;44.982;20.060;2023-11-19T15:15:07;40.10;;;22.08;;
76439;SDS011;65274;44.982;20.060;2023-11-19T16:11:55;37.55;;;17.08;;
76439;SDS011;65274;44.982;20.060;2023-11-19T16:14:49;44.28;;;17.88;;
76439;SDS011;65274;44.982;20.060;2023-11-19T16:17:30;41.78;;;19.67;;
76439;SDS011;65274;44.982;20.060;2023-11-19T16:20:22;45.85;;;21.42;;
76439;SDS011;65274;44.982;20.060;2023-11-19T16:23:36;41.47;;;21.02;;
76439;SDS011;65274;44.982;20.060;2023-11-19T16:26:05;46.45;;;24.20;;
76439;SDS011;65274;44.982;20.060;2023-11-19T16:28:37;45.53;;;22.60;;
76439;SDS011;65274;44.982;20.060;2023-11-19T16:31:03;38.88;;;20.02;;
76439;SDS011;65274;44.982;20.060;2023-11-19T16:33:29;42.08;;;22.48;;
76439;SDS011;65274;44.982;20.060;2023-11-19T16:35:55;48.10;;;23.83;;
76439;SDS011;65274;44.982;20.060;2023-11-19T16:38:25;54.20;;;27.33;;
76439;SDS011;65274;44.982;20.060;2023-11-19T16:40:52;61.25;;;28.08;;
76439;SDS011;65274;44.982;20.060;2023-11-19T16:43:18;61.53;;;31.08;;
76439;SDS011;65274;44.982;20.060;2023-11-19T16:45:45;60.80;;;31.85;;
76439;SDS011;65274;44.982;20.060;2023-11-19T16:48:11;62.25;;;33.38;;
76439;SDS011;65274;44.982;20.060;2023-11-19T16:50:38;72.38;;;34.83;;
76439;SDS011;65274;44.982;20.060;2023-11-19T16:53:04;68.97;;;37.15;;
76439;SDS011;65274;44.982;20.060;2023-11-19T16:55:31;90.90;;;45.10;;
76439;SDS011;65274;44.982;20.060;2023-11-19T16:57:57;91.35;;;45.15;;
76439;SDS011;65274;44.982;20.060;2023-11-19T17:00:24;70.97;;;35.80;;
76439;SDS011;65274;44.982;20.060;2023-11-19T17:02:50;67.57;;;34.55;;
76439;SDS011;65274;44.982;20.060;2023-11-19T17:05:16;57.28;;;32.35;;
76439;SDS011;65274;44.982;20.060;2023-11-19T17:07:42;72.93;;;33.88;;
76439;SDS011;65274;44.982;20.060;2023-11-19T17:10:09;60.17;;;30.50;;
76439;SDS011;65274;44.982;20.060;2023-11-19T17:12:35;59.85;;;31.13;;
76439;SDS011;65274;44.982;20.060;2023-11-19T17:15:02;84.40;;;38.53;;
76439;SDS011;65274;44.982;20.060;2023-11-19T17:17:31;67.57;;;33.92;;
76439;SDS011;65274;44.982;20.060;2023-11-19T17:20:01;93.45;;;44.17;;
76439;SDS011;65274;44.982;20.060;2023-11-19T17:22:30;152.48;;;64.20;;
76439;SDS011;65274;44.982;20.060;2023-11-19T17:24:58;79.53;;;39.20;;
76439;SDS011;65274;44.982;20.060;2023-11-19T17:27:25;65.80;;;34.08;;
76439;SDS011;65274;44.982;20.060;2023-11-19T17:29:53;52.30;;;29.67;;
76439;SDS011;65274;44.982;20.060;2023-11-19T17:32:19;60.95;;;30.48;;
76439;SDS011;65274;44.982;20.060;2023-11-19T17:34:45;90.43;;;45.83;;
76439;SDS011;65274;44.982;20.060;2023-11-19T17:37:11;83.60;;;42.72;;
76439;SDS011;65274;44.982;20.060;2023-11-19T17:39:38;61.95;;;32.33;;
76439;SDS011;65274;44.982;20.060;2023-11-19T17:42:06;47.80;;;26.27;;
76439;SDS011;65274;44.982;20.060;2023-11-19T17:44:33;71.82;;;33.08;;
76439;SDS011;65274;44.982;20.060;2023-11-19T17:49:33;61.33;;;35.47;;
76439;SDS011;65274;44.982;20.060;2023-11-19T17:52:01;68.70;;;36.60;;
76439;SDS011;65274;44.982;20.060;2023-11-19T17:54:30;59.65;;;30.17;;
76439;SDS011;65274;44.982;20.060;2023-11-19T17:56:56;56.80;;;31.48;;
76439;SDS011;65274;44.982;20.060;2023-11-19T17:59:28;52.17;;;31.70;;
76439;SDS011;65274;44.982;20.060;2023-11-19T18:01:57;51.38;;;31.15;;
76439;SDS011;65274;44.982;20.060;2023-11-19T18:04:25;57.95;;;34.15;;
76439;SDS011;65274;44.982;20.060;2023-11-19T18:06:55;61.50;;;33.30;;
76439;SDS011;65274;44.982;20.060;2023-11-19T18:09:30;57.13;;;32.58;;
76439;SDS011;65274;44.982;20.060;2023-11-19T18:11:58;61.63;;;34.10;;
76439;SDS011;65274;44.982;20.060;2023-11-19T18:14:29;81.38;;;41.88;;
76439;SDS011;65274;44.982;20.060;2023-11-19T18:16:57;66.15;;;33.83;;
76439;SDS011;65274;44.982;20.060;2023-11-19T18:19:31;83.78;;;46.70;;
76439;SDS011;65274;44.982;20.060;2023-11-19T18:22:12;87.60;;;49.55;;
76439;SDS011;65274;44.982;20.060;2023-11-19T18:24:41;98.13;;;50.77;;
76439;SDS011;65274;44.982;20.060;2023-11-19T18:27:15;85.90;;;49.17;;
76439;SDS011;65274;44.982;20.060;2023-11-19T18:29:44;82.20;;;45.15;;
76439;SDS011;65274;44.982;20.060;2023-11-19T18:32:14;99.82;;;46.97;;
76439;SDS011;65274;44.982;20.060;2023-11-19T18:34:41;91.65;;;48.40;;
76439;SDS011;65274;44.982;20.060;2023-11-19T18:37:07;90.55;;;46.10;;
76439;SDS011;65274;44.982;20.060;2023-11-19T18:39:34;94.38;;;47.80;;
76439;SDS011;65274;44.982;20.060;2023-11-19T18:42:01;79.15;;;42.35;;
76439;SDS011;65274;44.982;20.060;2023-11-19T18:44:27;92.82;;;47.80;;
76439;SDS011;65274;44.982;20.060;2023-11-19T18:46:55;88.22;;;45.95;;
76439;SDS011;65274;44.982;20.060;2023-11-19T18:49:25;87.93;;;46.80;;
76439;SDS011;65274;44.982;20.060;2023-11-19T18:51:52;87.40;;;47.85;;
76439;SDS011;65274;44.982;20.060;2023-11-19T18:54:21;83.82;;;47.03;;
76439;SDS011;65274;44.982;20.060;2023-11-19T18:56:47;99.45;;;47.92;;
76439;SDS011;65274;44.982;20.060;2023-11-19T18:59:14;100.80;;;46.42;;
76439;SDS011;65274;44.982;20.060;2023-11-19T19:01:40;87.97;;;48.45;;
76439;SDS011;65274;44.982;20.060;2023-11-19T19:04:09;93.65;;;51.13;;
76439;SDS011;65274;44.982;20.060;2023-11-19T19:06:35;90.35;;;50.00;;
76439;SDS011;65274;44.982;20.060;2023-11-19T19:09:06;92.15;;;50.83;;
76439;SDS011;65274;44.982;20.060;2023-11-19T19:11:32;110.88;;;53.97;;
76439;SDS011;65274;44.982;20.060;2023-11-19T19:13:59;114.40;;;53.05;;
76439;SDS011;65274;44.982;20.060;2023-11-19T19:16:25;107.35;;;54.75;;
76439;SDS011;65274;44.982;20.060;2023-11-19T19:18:51;100.13;;;50.72;;
76439;SDS011;65274;44.982;20.060;2023-11-19T19:21:20;112.28;;;54.78;;
76439;SDS011;65274;44.982;20.060;2023-11-19T19:23:46;101.95;;;51.22;;
76439;SDS011;65274;44.982;20.060;2023-11-19T19:26:13;89.60;;;46.65;;
76439;SDS011;65274;44.982;20.060;2023-11-19T19:28:39;95.35;;;48.92;;
76439;SDS011;65274;44.982;20.060;2023-11-19T19:31:05;78.95;;;41.33;;
76439;SDS011;65274;44.982;20.060;2023-11-19T19:33:38;59.40;;;35.28;;
76439;SDS011;65274;44.982;20.060;2023-11-19T19:36:04;65.93;;;34.70;;
76439;SDS011;65274;44.982;20.060;2023-11-19T19:38:30;62.22;;;30.38;;
76439;SDS011;65274;44.982;20.060;2023-11-19T19:40:56;54.80;;;28.80;;
76439;SDS011;65274;44.982;20.060;2023-11-19T19:43:22;60.25;;;32.22;;
76439;SDS011;65274;44.982;20.060;2023-11-19T19:45:49;53.72;;;29.75;;
76439;SDS011;65274;44.982;20.060;2023-11-19T19:48:15;60.88;;;31.25;;
76439;SDS011;65274;44.982;20.060;2023-11-19T19:50:41;69.97;;;32.83;;
76439;SDS011;65274;44.982;20.060;2023-11-19T19:53:07;59.65;;;33.50;;
76439;SDS011;65274;44.982;20.060;2023-11-19T19:55:35;78.57;;;40.55;;
76439;SDS011;65274;44.982;20.060;2023-11-19T19:58:01;101.10;;;47.03;;
76439;SDS011;65274;44.982;20.060;2023-11-19T20:02:57;97.55;;;47.58;;
76439;SDS011;65274;44.982;20.060;2023-11-19T20:05:23;91.07;;;44.78;;
76439;SDS011;65274;44.982;20.060;2023-11-19T20:07:51;101.77;;;50.17;;
76439;SDS011;65274;44.982;20.060;2023-11-19T20:10:18;131.30;;;58.63;;
76439;SDS011;65274;44.982;20.060;2023-11-19T20:12:44;111.72;;;52.10;;
76439;SDS011;65274;44.982;20.060;2023-11-19T20:15:11;100.05;;;48.28;;
76439;SDS011;65274;44.982;20.060;2023-11-19T20:17:37;77.68;;;40.08;;
76439;SDS011;65274;44.982;20.060;2023-11-19T20:20:03;74.85;;;38.03;;
76439;SDS011;65274;44.982;20.060;2023-11-19T20:22:30;74.03;;;37.07;;
76439;SDS011;65274;44.982;20.060;2023-11-19T20:24:59;68.15;;;33.28;;
76439;SDS011;65274;44.982;20.060;2023-11-19T20:27:25;69.00;;;35.10;;
76439;SDS011;65274;44.982;20.060;2023-11-19T20:29:51;67.07;;;37.25;;
76439;SDS011;65274;44.982;20.060;2023-11-19T20:32:18;65.45;;;35.75;;
76439;SDS011;65274;44.982;20.060;2023-11-19T20:34:44;66.60;;;35.65;;
76439;SDS011;65274;44.982;20.060;2023-11-19T20:37:10;66.90;;;35.53;;
76439;SDS011;65274;44.982;20.060;2023-11-19T20:39:37;73.55;;;38.08;;
76439;SDS011;65274;44.982;20.060;2023-11-19T20:42:03;83.97;;;40.65;;
76439;SDS011;65274;44.982;20.060;2023-11-19T20:44:29;88.25;;;40.70;;
76439;SDS011;65274;44.982;20.060;2023-11-19T20:46:56;74.32;;;40.65;;
76439;SDS011;65274;44.982;20.060;2023-11-19T20:49:22;69.80;;;35.42;;
76439;SDS011;65274;44.982;20.060;2023-11-19T20:51:48;76.90;;;40.83;;
76439;SDS011;65274;44.982;20.060;2023-11-19T20:54:15;85.32;;;42.13;;
76439;SDS011;65274;44.982;20.060;2023-11-19T20:56:41;81.50;;;41.22;;
76439;SDS011;65274;44.982;20.060;2023-11-19T20:59:08;78.18;;;41.65;;
76439;SDS011;65274;44.982;20.060;2023-11-19T21:01:35;66.65;;;37.05;;
76439;SDS011;65274;44.982;20.060;2023-11-19T21:04:02;62.30;;;33.03;;
76439;SDS011;65274;44.982;20.060;2023-11-19T21:06:28;59.25;;;34.00;;
76439;SDS011;65274;44.982;20.060;2023-11-19T21:08:54;69.22;;;36.97;;
76439;SDS011;65274;44.982;20.060;2023-11-19T21:11:20;62.83;;;31.35;;
76439;SDS011;65274;44.982;20.060;2023-11-19T21:13:46;62.35;;;29.77;;
76439;SDS011;65274;44.982;20.060;2023-11-19T21:16:12;53.15;;;29.88;;
76439;SDS011;65274;44.982;20.060;2023-11-19T21:18:39;62.58;;;33.65;;
76439;SDS011;65274;44.982;20.060;2023-11-19T21:21:05;62.05;;;31.45;;
76439;SDS011;65274;44.982;20.060;2023-11-19T21:23:32;64.65;;;31.85;;
76439;SDS011;65274;44.982;20.060;2023-11-19T21:25:58;63.28;;;34.72;;
76439;SDS011;65274;44.982;20.060;2023-11-19T21:28:25;62.95;;;31.75;;
76439;SDS011;65274;44.982;20.060;2023-11-19T21:30:59;63.78;;;36.25;;
76439;SDS011;65274;44.982;20.060;2023-11-19T21:33:26;58.08;;;30.52;;
76439;SDS011;65274;44.982;20.060;2023-11-19T21:35:52;53.70;;;29.70;;
76439;SDS011;65274;44.982;20.060;2023-11-19T21:38:20;51.15;;;27.25;;
76439;SDS011;65274;44.982;20.060;2023-11-19T21:40:47;50.30;;;26.25;;
76439;SDS011;65274;44.982;20.060;2023-11-19T21:43:47;51.35;;;26.13;;
76439;SDS011;65274;44.982;20.060;2023-11-19T21:46:27;53.65;;;27.55;;
76439;SDS011;65274;44.982;20.060;2023-11-19T21:49:03;49.70;;;26.92;;
76439;SDS011;65274;44.982;20.060;2023-11-19T21:54:23;53.15;;;24.17;;
76439;SDS011;65274;44.982;20.060;2023-11-19T21:56:51;52.67;;;27.70;;
76439;SDS011;65274;44.982;20.060;2023-11-19T22:02:01;46.75;;;26.50;;
76439;SDS011;65274;44.982;20.060;2023-11-19T22:04:33;50.40;;;26.95;;
76439;SDS011;65274;44.982;20.060;2023-11-19T22:06:59;53.13;;;26.02;;
76439;SDS011;65274;44.982;20.060;2023-11-19T22:09:26;50.92;;;27.02;;
76439;SDS011;65274;44.982;20.060;2023-11-19T22:11:53;48.03;;;27.45;;
76439;SDS011;65274;44.982;20.060;2023-11-19T22:14:21;41.97;;;24.10;;
76439;SDS011;65274;44.982;20.060;2023-11-19T22:16:49;43.38;;;24.10;;
76439;SDS011;65274;44.982;20.060;2023-11-19T22:19:17;43.78;;;25.55;;
76439;SDS011;65274;44.982;20.060;2023-11-19T22:24:34;49.85;;;26.45;;
76439;SDS011;65274;44.982;20.060;2023-11-19T22:27:06;47.42;;;23.98;;
76439;SDS011;65274;44.982;20.060;2023-11-19T22:29:33;52.92;;;26.02;;
76439;SDS011;65274;44.982;20.060;2023-11-19T22:31:59;52.72;;;29.27;;
76439;SDS011;65274;44.982;20.060;2023-11-19T22:34:25;55.05;;;27.73;;
76439;SDS011;65274;44.982;20.060;2023-11-19T22:36:54;47.88;;;24.92;;
76439;SDS011;65274;44.982;20.060;2023-11-19T22:39:21;43.95;;;25.58;;
76439;SDS011;65274;44.982;20.060;2023-11-19T22:41:50;48.28;;;25.95;;
76439;SDS011;65274;44.982;20.060;2023-11-19T22:44:19;44.60;;;24.38;;
76439;SDS011;65274;44.982;20.060;2023-11-19T22:46:47;43.28;;;24.88;;
76439;SDS011;65274;44.982;20.060;2023-11-19T22:49:14;38.25;;;23.33;;
76439;SDS011;65274;44.982;20.060;2023-11-19T22:51:40;43.70;;;21.40;;
76439;SDS011;65274;44.982;20.060;2023-11-19T22:54:07;40.25;;;21.85;;
76439;SDS011;65274;44.982;20.060;2023-11-19T22:56:42;39.20;;;21.90;;
76439;SDS011;65274;44.982;20.060;2023-11-19T22:59:22;42.75;;;25.30;;
76439;SDS011;65274;44.982;20.060;2023-11-19T23:01:55;46.28;;;26.73;;
76439;SDS011;65274;44.982;20.060;2023-11-19T23:04:30;52.75;;;27.38;;
76439;SDS011;65274;44.982;20.060;2023-11-19T23:06:56;53.72;;;28.85;;
76439;SDS011;65274;44.982;20.060;2023-11-19T23:09:42;48.33;;;26.23;;
76439;SDS011;65274;44.982;20.060;2023-11-19T23:12:12;46.95;;;25.95;;
76439;SDS011;65274;44.982;20.060;2023-11-19T23:14:54;47.85;;;26.95;;
76439;SDS011;65274;44.982;20.060;2023-11-19T23:17:24;50.33;;;26.67;;
76439;SDS011;65274;44.982;20.060;2023-11-19T23:19:56;49.05;;;27.75;;
76439;SDS011;65274;44.982;20.060;2023-11-19T23:25:56;45.38;;;24.80;;
76439;SDS011;65274;44.982;20.060;2023-11-19T23:28:26;43.10;;;26.65;;
76439;SDS011;65274;44.982;20.060;2023-11-19T23:33:48;47.28;;;27.70;;
76439;SDS011;65274;44.982;20.060;2023-11-19T23:40:15;41.53;;;24.67;;
76439;SDS011;65274;44.982;20.060;2023-11-19T23:43:18;50.55;;;28.48;;
76439;SDS011;65274;44.982;20.060;2023-11-19T23:46:23;60.22;;;29.55;;
76439;SDS011;65274;44.982;20.060;2023-11-19T23:48:56;67.38;;;32.58;;
76439;SDS011;65274;44.982;20.060;2023-11-19T23:54:29;59.15;;;27.85;;
76439;SDS011;65274;44.982;20.060;2023-11-19T23:57:07;62.10;;;31.58;;
76439;SDS011;65274;44.982;20.060;2023-11-19T23:59:58;54.92;;;31.00;;
